• Join FlightAware (Why Join?)
  • Login
  • US Flag 
Trick or treat! (Boo!!) 
09:47AM EDT


 

Airport Tracker/Info


-or-


 

Live Flight TrackerFlight Track Log ✈ BER6567 ✈ 15-Apr-2013 ✈ EDDT / TXL - EDDF / FRA

Flight Track Log - Related Links

Times and Time Zones

All times are in EDT time to prevent confusion due to time zone crossing. See the BER6567 flight status page for this flight to view local times or setup timezone preferences in your user account.

Time Position Orientation Groundspeed Altitude Reporting Facility
EDT Latitude Longitude Course Direction KTS MPH feet Rate Location/Type
03:27PM 51.7837 11.7382 231° Southwest  Level Estimated
03:28PM 51.7121 11.6000 230° Southwest  Level Estimated
03:29PM 51.6404 11.4623 230° Southwest  Level Estimated
03:30PM 51.5686 11.3249 230° Southwest  Level Estimated
03:31PM 51.4966 11.1880 230° Southwest  Level Estimated
03:32PM 51.4244 11.0516 230° Southwest  Level Estimated
03:33PM 51.3520 10.9156 230° Southwest  Level Estimated
03:34PM 51.2795 10.7800 230° Southwest  Level Estimated
03:35PM 51.2069 10.6448 229° Southwest  Level Estimated
03:36PM 51.1341 10.5100 229° Southwest  Level Estimated
03:37PM 51.0611 10.3757 229° Southwest  Level Estimated
03:38PM 50.9880 10.2418 229° Southwest  Level Estimated
03:39PM 50.9147 10.1083 229° Southwest  Level Estimated
03:40PM 50.8413 9.9753 229° Southwest  Level Estimated
03:41PM 50.7677 9.8426 229° Southwest  Level Estimated
03:42PM 50.6940 9.7104 229° Southwest  Level Estimated
03:43PM 50.6202 9.5786 229° Southwest  Level Estimated
03:44PM 50.5461 9.4472 228° Southwest  Level Estimated
03:45PM 50.4720 9.3162 228° Southwest  Level Estimated
03:46PM 50.3977 9.1856 228° Southwest  Level Estimated
03:47PM 50.3232 9.0555 228° Southwest  Level Estimated
03:48PM 50.2486 8.9257 228° Southwest  Level Estimated
03:49PM 50.1739 8.7964 228° Southwest  Level Estimated
03:50PM 50.0990 8.6674 228° Southwest  Level Estimated
03:51PM 50.0264 8.5431 228° Southwest  Level Estimated
03:52PM 50.0264 8.5431 73° East  Level Estimated
03:53PM 50.0264 8.5431 73° East  Level Estimated
03:54PM 50.0264 8.5431 73° East  Level Estimated
03:55PM 50.0264 8.5431 73° East  Level Estimated
03:56PM 50.0264 8.5431 73° East  Level Estimated
03:57PM 50.0264 8.5431 73° East  Level Estimated
03:58PM 50.0264 8.5431 73° East  Level Estimated
03:59PM 50.0264 8.5431 73° East  Level Estimated
04:00PM 50.0264 8.5431 73° East  Level Estimated
04:01PM 50.0264 8.5431 73° East  Level Estimated
04:02PM 50.0264 8.5431 73° East  Level Estimated
04:03PM 50.0264 8.5431 73° East  Level Estimated
04:04PM 50.0264 8.5431 73° East  Level Estimated
04:05PM 50.0264 8.5431 73° East  Level Estimated
04:06PM 50.0264 8.5431 73° East  Level Estimated
04:07PM 50.0264 8.5431 73° East  Level Estimated